Terminal Aerodrome Forecast
Issued by NWS Atlanta, GA

Home | Current Version | Previous Version | Text Only | Print | Product List | Glossary On
Versions: 1 2 3 4 5 6 7 8 9 10 11 12 13 14
485
FTUS42 KFFC 101120
TAFMCN
TAF
KMCN 101120Z 1012/1112 28009G17KT P6SM SCT035 SCT060
      TEMPO 1012/1014 BKN035
     FM101400 29014G24KT P6SM FEW060
     FM110000 27010KT P6SM SKC
     FM110600 27004KT P6SM SCT250=

USA.gov is the U.S. government's official web portal to all federal, state and local government web resources and services.